Disclaimer

Please do not use the information listed here in-flight or in-navigation, as they are not provided to us by the airports but are provided by volunteers, so they might be outdated.

Search


Regions


Airport information page

Radio informations:
Tower (TWR) - 119.25 MHz
Approach (APP) - 119.25 MHz

Airport informations:
Latitude: 36° 58' 48.00" N
Longitude: 008° 52' 37.00" E
Elevation: 230 feet - 70 meters
Operating hours: Remarks
Operating agency: Civil government, landing fees and diplomatic clearance may be required
Timezone: UTC+1(+2DT) - Dates notified by NOTAM
Fuel: N/A

Runway information:
09/27 - 9416 x 148 feet< - >2870 x 45 meters

Recent METARs:
DTKA 131900Z 11006KT 080V140 9999 FEW020 21/15 Q1025 NOSIG
DTKA 132000Z AUTO 11003KT 060V190 /// 20/14 Q1025
DTKA 132000Z AUTO 11003KT 060V190 /// 20/14 Q1025

Airport on the map: